Weather History for Pittsburg, KS

Change the Weather History Date:

Thursday, August 15, 2013

  Actual Average (KJLN) Record (KJLN)
Temperature  
Mean Temperature 68 °F 80 °F  
Max Temperature 78 °F 92 °F 104 °F (1956)
Min Temperature 58 °F 69 °F 49 °F (1994)
Degree Days  
Heating Degree Days 0 0  
Month to date heating degree days 0  
Since 1 June heating degree days 5  
Since 1 July heating degree days 0  
Cooling Degree Days 3 15  
Month to date cooling degree days 236  
Year to date cooling degree days 1207  
Since 1 June cooling degree days 1027  
Growing Degree Days 18 (Base 50)    
Moisture  
Dew Point 58 °F    
Average Humidity 72    
Maximum Humidity 100    
Minimum Humidity 46    
Precipitation  
Precipitation 0.01 in 0.10 in 2.68 in (2005)
Month to date precipitation 1.52  
Year to date precipitation 29.14  
Snow  
Snow 0.00 in - - ()
Month to date snowfall  
Since 1 June snowfall  
Since 1 July snowfall  
Snow Depth -    
Sea Level Pressure  
Sea Level Pressure 30.09 in    
Wind  
Wind Speed 4 mph (SE)    
Max Wind Speed 9 mph    
Max Gust Speed -    
Visibility 10 miles    
Events      
T = Trace of Precipitation, MM = Missing Value Source: NWS Daily Summary

Daily Weather History Graph

Daily Weather History Graph

Search for Another Location

Airport:

Trip Planner

Search our weather history database for the weather conditions in past years. The results will help you decide how hot, cold, wet, or windy it might be!

Date:

Astronomy

Aug. 15, 2013 Rise Set
Actual Time 6:35 AM CDT 8:10 PM CDT
Civil Twilight 6:07 AM CDT 8:38 PM CDT
Nautical Twilight 5:33 AM CDT 9:11 PM CDT
Astronomical Twilight 4:58 AM CDT 9:47 PM CDT
Moon 3:26 PM CDT (8/15) 12:47 AM CDT (8/15)
Length of Visible Light 14h 31m
Length of Day
13h 35m
Waxing Gibbous, 64% of the Moon is Illuminated
Aug 15
Waxing Gibbous
Aug 20
Full
Aug 28
Last Quarter
Sep 5
New
Sep 12
First Quarter

Hourly Weather History & Observations

Time (CDT) Temp. Dew Point Humidity Pressure Visibility Wind Dir Wind Speed Gust Speed Precip Events Conditions
12:15 AM 63.5 °F 58.6 °F 84% 30.12 in 10.0 mi East 3.5 mph - N/A   Clear
12:35 AM 63.5 °F 58.1 °F 83% 30.12 in 10.0 mi ESE 3.5 mph - N/A   Clear
12:55 AM 63.5 °F 58.1 °F 83% 30.12 in 10.0 mi ESE 3.5 mph - N/A   Clear
1:15 AM 63.5 °F 57.7 °F 81% 30.12 in 10.0 mi ESE 3.5 mph - N/A   Clear
1:35 AM 63.0 °F 57.2 °F 81% 30.11 in 10.0 mi East 4.6 mph - N/A   Clear
1:55 AM 62.1 °F 57.0 °F 84% 30.11 in 10.0 mi Calm Calm - N/A   Clear
2:15 AM 62.1 °F 57.4 °F 85% 30.10 in 10.0 mi ESE 3.5 mph - N/A   Clear
2:35 AM 61.2 °F 57.7 °F 88% 30.10 in 10.0 mi Calm Calm - N/A   Clear
2:55 AM 60.8 °F 58.5 °F 92% 30.11 in 10.0 mi Calm Calm - N/A   Clear
3:15 AM 61.0 °F 58.5 °F 91% 30.11 in 10.0 mi Calm Calm - N/A   Clear
3:35 AM 60.8 °F 59.2 °F 94% 30.11 in 10.0 mi Calm Calm - N/A   Clear
3:55 AM 60.8 °F 59.9 °F 97% 30.11 in 10.0 mi Calm Calm - N/A   Clear
4:15 AM 60.8 °F 59.7 °F 96% 30.11 in 10.0 mi Calm Calm - N/A   Clear
4:35 AM 60.8 °F 59.5 °F 96% 30.11 in 10.0 mi ESE 3.5 mph - N/A   Clear
4:55 AM 60.8 °F 59.9 °F 97% 30.11 in 10.0 mi ESE 3.5 mph - N/A   Clear
5:15 AM 60.8 °F 60.4 °F 99% 30.11 in 10.0 mi SE 3.5 mph - N/A   Clear
5:35 AM 60.6 °F 60.6 °F 100% 30.12 in 10.0 mi Calm Calm - N/A   Clear
5:55 AM 59.4 °F 59.4 °F 100% 30.12 in 10.0 mi ESE 3.5 mph - N/A   Clear
6:15 AM 58.3 °F 58.5 °F 100% 30.12 in 10.0 mi SE 3.5 mph - N/A   Clear
6:35 AM 58.3 °F 58.5 °F 100% 30.12 in 10.0 mi Calm Calm - N/A   Clear
6:55 AM 58.3 °F 58.5 °F 100% 30.12 in 10.0 mi Calm Calm - N/A   Clear
7:15 AM 58.3 °F 58.5 °F 100% 30.12 in 10.0 mi SE 3.5 mph - N/A   Clear
7:35 AM 60.1 °F 60.1 °F 100% 30.13 in 10.0 mi ESE 4.6 mph - N/A   Clear
7:55 AM 60.8 °F 60.4 °F 99% 30.13 in 10.0 mi SSE 6.9 mph - N/A   Clear
8:15 AM 61.9 °F 59.4 °F 91% 30.14 in 10.0 mi SSE 5.8 mph - N/A   Clear
8:35 AM 63.3 °F 58.8 °F 85% 30.14 in 10.0 mi SSE 9.2 mph - N/A   Clear
8:55 AM 64.9 °F 57.2 °F 76% 30.14 in 10.0 mi SSE 9.2 mph - N/A   Clear
9:15 AM 65.7 °F 57.6 °F 75% 30.14 in 10.0 mi SSE 6.9 mph - N/A   Clear
9:35 AM 66.9 °F 58.1 °F 73% 30.13 in 10.0 mi South 6.9 mph - N/A   Clear
9:55 AM 69.4 °F 58.8 °F 69% 30.14 in 10.0 mi South 5.8 mph - N/A   Clear
10:15 AM 70.9 °F 59.4 °F 67% 30.14 in 10.0 mi South 6.9 mph - N/A   Clear
10:35 AM 70.9 °F 58.6 °F 65% 30.14 in 10.0 mi SSW 6.9 mph - N/A   Clear
10:55 AM 70.9 °F 57.9 °F 63% 30.14 in 10.0 mi South 6.9 mph - N/A   Clear
11:15 AM 70.9 °F 57.7 °F 63% 30.13 in 10.0 mi South 6.9 mph - N/A   Clear
11:35 AM 71.6 °F 57.6 °F 61% 30.12 in 10.0 mi South 5.8 mph - N/A   Clear
11:55 AM 73.8 °F 59.2 °F 60% 30.12 in 10.0 mi SSW 4.6 mph - N/A   Clear
12:15 PM 75.0 °F 59.0 °F 57% 30.12 in 10.0 mi SSW 6.9 mph - N/A   Clear
12:35 PM 75.6 °F 58.6 °F 56% 30.11 in 10.0 mi SW 3.5 mph - N/A   Clear
12:55 PM 76.1 °F 57.9 °F 53% 30.11 in 10.0 mi SW 3.5 mph - N/A   Clear
1:15 PM 76.1 °F 58.3 °F 54% 30.09 in 10.0 mi SW 3.5 mph - N/A   Clear
1:35 PM 76.1 °F 57.2 °F 52% 30.09 in 10.0 mi East 3.5 mph - N/A   Clear
1:55 PM 76.1 °F 55.9 °F 50% 30.09 in 10.0 mi SSE 4.6 mph - N/A   Clear
2:15 PM 76.1 °F 56.1 °F 50% 30.09 in 10.0 mi South 3.5 mph - N/A   Clear
2:35 PM 76.1 °F 54.9 °F 48% 30.07 in 10.0 mi SSE 3.5 mph - N/A   Clear
2:55 PM 76.6 °F 56.1 °F 49% 30.07 in 10.0 mi SE 4.6 mph - N/A   Clear
3:15 PM 77.2 °F 55.8 °F 47% 30.07 in 10.0 mi East 4.6 mph - N/A   Clear
3:35 PM 77.7 °F 55.8 °F 47% 30.07 in 10.0 mi ESE 8.1 mph - N/A   Clear
3:55 PM 78.4 °F 56.3 °F 46% 30.06 in 10.0 mi South 4.6 mph - 0.01 in   Clear
4:15 PM 78.4 °F 56.8 °F 47% 30.05 in 10.0 mi East 4.6 mph - N/A   Clear
4:35 PM 78.4 °F 56.8 °F 47% 30.05 in 10.0 mi Calm Calm - N/A   Clear
4:55 PM 78.4 °F 57.2 °F 48% 30.04 in 10.0 mi ESE 6.9 mph - N/A   Clear
5:15 PM 78.4 °F 57.7 °F 49% 30.04 in 10.0 mi SE 6.9 mph - N/A   Clear
5:35 PM 78.4 °F 57.7 °F 49% 30.04 in 10.0 mi East 6.9 mph - N/A   Clear
5:55 PM 78.3 °F 57.7 °F 49% 30.04 in 10.0 mi ESE 3.5 mph - N/A   Clear
6:15 PM 77.9 °F 58.1 °F 50% 30.04 in 10.0 mi ESE 5.8 mph - N/A   Scattered Clouds
6:35 PM 76.3 °F 57.2 °F 52% 30.04 in 10.0 mi SSE 5.8 mph - N/A   Clear
6:55 PM 76.1 °F 58.3 °F 54% 30.02 in 10.0 mi SE 4.6 mph - N/A   Clear
7:15 PM 76.1 °F 59.7 °F 57% 30.03 in 10.0 mi SSE 5.8 mph - N/A   Clear
7:35 PM 74.5 °F 60.1 °F 61% 30.04 in 10.0 mi SE 4.6 mph - N/A   Clear
7:55 PM 73.2 °F 59.5 °F 62% 30.03 in 10.0 mi ESE 5.8 mph - N/A   Clear
8:15 PM 71.6 °F 58.6 °F 64% 30.04 in 10.0 mi ESE 4.6 mph - N/A   Clear
8:35 PM 70.9 °F 58.3 °F 64% 30.05 in 10.0 mi ESE 3.5 mph - N/A   Clear
8:55 PM 70.9 °F 59.4 °F 67% 30.05 in 10.0 mi East 3.5 mph - N/A   Clear
9:15 PM 70.9 °F 60.4 °F 69% 30.06 in 10.0 mi ESE 3.5 mph - N/A   Clear
9:35 PM 70.9 °F 61.2 °F 71% 30.07 in 10.0 mi East 4.6 mph - N/A   Clear
9:55 PM 70.9 °F 61.5 °F 72% 30.06 in 10.0 mi ESE 5.8 mph - N/A   Clear
10:15 PM 70.9 °F 61.7 °F 73% 30.05 in 10.0 mi East 6.9 mph - N/A   Clear
10:35 PM 70.9 °F 61.3 °F 72% 30.06 in 10.0 mi ESE 5.8 mph - N/A   Clear
10:55 PM 70.0 °F 60.4 °F 72% 30.07 in 10.0 mi ESE 4.6 mph - N/A   Clear
11:15 PM 69.1 °F 59.2 °F 71% 30.08 in 10.0 mi SE 5.8 mph - N/A   Clear
11:35 PM 68.4 °F 59.0 °F 72% 30.08 in 10.0 mi ESE 4.6 mph - N/A   Scattered Clouds
11:55 PM 68.4 °F 59.9 °F 74% 30.07 in 10.0 mi ESE 3.5 mph - N/A   Clear